CheckWX is a tool to help pilots better visualize weather data.  It is not intended as a substitute for an official pre-flight weather briefing.

18:54:40 UTC

KICT METAR
Wichita Dwight D Eisenhower National Airport
Wichita, Kansas, USA
Current

1 hour ago

KICT 221753Z 10009KT 10SM BKN016 OVC024 05/00 A3009 RMK AO2 SLP197 T00500000 10056 20011 58005 $
Observed
Feb-22 @ 17:53 UTC
Wind
  • 100° at 9 KTS
Visibility
10 SM
Flight Rules
MVFR
Cloud Levels
  • Broken at 1,600' AGL
  • Overcast at 2,400' AGL
Temperature
C / 41°F
Dewpoint
C / 32°F
Humidity
70%
Altimeter
30.09" Hg
Pressure
1019.7 hPa
Previous

2 hours ago

KICT 221653Z 11006KT 10SM FEW017 OVC022 04/M01 A3010 RMK AO2 SLP200 T00441006 $
Observed
Feb-22 @ 16:53 UTC
Wind
  • 110° at 6 KTS
Visibility
10 SM
Flight Rules
MVFR
Cloud Levels
  • Few at 1,700' AGL
  • Overcast at 2,200' AGL
Temperature
C / 39°F
Dewpoint
-1°C / 30°F
Humidity
70%
Altimeter
30.1" Hg
Pressure
1020 hPa
Previous

2 hours ago

KICT 221625Z 08010KT 10SM SCT019 BKN029 BKN060 OVC140 04/M01 A3008 RMK AO2 T00441006 $
Observed
Feb-22 @ 16:25 UTC
Wind
  • 080° at 10 KTS
Visibility
10 SM
Flight Rules
MVFR
Cloud Levels
  • Scattered at 1,900' AGL
  • Broken at 2,900' AGL
  • Broken at 6,000' AGL
  • Overcast at 14,000' AGL
Temperature
C / 39°F
Dewpoint
-1°C / 30°F
Humidity
70%
Altimeter
30.08" Hg
Pressure
1018.62 hPa